sensor_id;sensor_type;location;lat;lon;timestamp;P1;durP1;ratioP1;P2;durP2;ratioP2
8474;SDS011;4274;52.012;8.448;2023-07-08T00:01:07;49.50;;;3.40;;
8474;SDS011;4274;52.012;8.448;2023-07-08T00:03:36;47.00;;;2.80;;
8474;SDS011;4274;52.012;8.448;2023-07-08T00:06:02;47.10;;;2.77;;
8474;SDS011;4274;52.012;8.448;2023-07-08T00:08:27;52.53;;;3.00;;
8474;SDS011;4274;52.012;8.448;2023-07-08T00:10:53;45.90;;;2.60;;
8474;SDS011;4274;52.012;8.448;2023-07-08T00:13:19;60.23;;;3.30;;
8474;SDS011;4274;52.012;8.448;2023-07-08T00:15:44;46.20;;;2.40;;
8474;SDS011;4274;52.012;8.448;2023-07-08T00:18:17;46.77;;;3.07;;
8474;SDS011;4274;52.012;8.448;2023-07-08T00:20:45;47.57;;;3.27;;
8474;SDS011;4274;52.012;8.448;2023-07-08T00:23:14;55.80;;;3.40;;
8474;SDS011;4274;52.012;8.448;2023-07-08T00:25:40;47.47;;;2.90;;
8474;SDS011;4274;52.012;8.448;2023-07-08T00:28:09;48.30;;;3.10;;
8474;SDS011;4274;52.012;8.448;2023-07-08T00:30:42;50.67;;;3.93;;
8474;SDS011;4274;52.012;8.448;2023-07-08T00:33:08;47.70;;;3.20;;
8474;SDS011;4274;52.012;8.448;2023-07-08T00:35:34;48.73;;;3.50;;
8474;SDS011;4274;52.012;8.448;2023-07-08T00:38:12;47.63;;;3.53;;
8474;SDS011;4274;52.012;8.448;2023-07-08T00:40:52;49.50;;;3.73;;
8474;SDS011;4274;52.012;8.448;2023-07-08T00:43:28;52.70;;;3.20;;
8474;SDS011;4274;52.012;8.448;2023-07-08T00:46:03;49.60;;;4.10;;
8474;SDS011;4274;52.012;8.448;2023-07-08T00:48:48;47.37;;;3.27;;
8474;SDS011;4274;52.012;8.448;2023-07-08T00:51:17;51.17;;;3.90;;
8474;SDS011;4274;52.012;8.448;2023-07-08T00:53:44;50.10;;;3.77;;
8474;SDS011;4274;52.012;8.448;2023-07-08T00:56:17;48.37;;;3.50;;
8474;SDS011;4274;52.012;8.448;2023-07-08T00:58:46;48.30;;;3.40;;
8474;SDS011;4274;52.012;8.448;2023-07-08T01:01:15;47.53;;;3.67;;
8474;SDS011;4274;52.012;8.448;2023-07-08T01:03:47;46.87;;;3.10;;
8474;SDS011;4274;52.012;8.448;2023-07-08T01:06:19;47.77;;;3.70;;
8474;SDS011;4274;52.012;8.448;2023-07-08T01:08:48;47.60;;;3.37;;
8474;SDS011;4274;52.012;8.448;2023-07-08T01:11:17;48.97;;;3.30;;
8474;SDS011;4274;52.012;8.448;2023-07-08T01:13:46;47.23;;;3.50;;
8474;SDS011;4274;52.012;8.448;2023-07-08T01:16:14;48.20;;;3.67;;
8474;SDS011;4274;52.012;8.448;2023-07-08T01:18:40;49.03;;;3.63;;
8474;SDS011;4274;52.012;8.448;2023-07-08T01:21:27;46.77;;;3.20;;
8474;SDS011;4274;52.012;8.448;2023-07-08T01:24:03;48.10;;;3.47;;
8474;SDS011;4274;52.012;8.448;2023-07-08T01:26:31;46.80;;;3.30;;
8474;SDS011;4274;52.012;8.448;2023-07-08T01:29:00;48.30;;;3.30;;
8474;SDS011;4274;52.012;8.448;2023-07-08T01:31:27;46.87;;;3.20;;
8474;SDS011;4274;52.012;8.448;2023-07-08T01:33:53;47.80;;;3.47;;
8474;SDS011;4274;52.012;8.448;2023-07-08T01:36:19;49.80;;;3.40;;
8474;SDS011;4274;52.012;8.448;2023-07-08T01:38:45;46.30;;;3.20;;
8474;SDS011;4274;52.012;8.448;2023-07-08T01:41:12;46.50;;;3.00;;
8474;SDS011;4274;52.012;8.448;2023-07-08T01:43:39;48.67;;;3.50;;
8474;SDS011;4274;52.012;8.448;2023-07-08T01:46:04;45.80;;;3.10;;
8474;SDS011;4274;52.012;8.448;2023-07-08T01:48:41;47.87;;;3.20;;
8474;SDS011;4274;52.012;8.448;2023-07-08T01:51:16;51.37;;;3.67;;
8474;SDS011;4274;52.012;8.448;2023-07-08T01:53:42;48.70;;;3.30;;
8474;SDS011;4274;52.012;8.448;2023-07-08T01:56:09;47.37;;;3.23;;
8474;SDS011;4274;52.012;8.448;2023-07-08T01:58:37;47.43;;;3.20;;
8474;SDS011;4274;52.012;8.448;2023-07-08T02:01:03;49.40;;;3.80;;
8474;SDS011;4274;52.012;8.448;2023-07-08T02:03:29;46.93;;;3.50;;
8474;SDS011;4274;52.012;8.448;2023-07-08T02:05:55;48.00;;;3.73;;
8474;SDS011;4274;52.012;8.448;2023-07-08T02:08:20;47.20;;;3.17;;
8474;SDS011;4274;52.012;8.448;2023-07-08T02:10:49;48.53;;;3.27;;
8474;SDS011;4274;52.012;8.448;2023-07-08T02:13:17;48.33;;;3.00;;
8474;SDS011;4274;52.012;8.448;2023-07-08T02:15:42;48.30;;;3.47;;
8474;SDS011;4274;52.012;8.448;2023-07-08T02:18:08;46.80;;;3.10;;
8474;SDS011;4274;52.012;8.448;2023-07-08T02:20:34;46.60;;;3.40;;
8474;SDS011;4274;52.012;8.448;2023-07-08T02:22:59;47.77;;;3.20;;
8474;SDS011;4274;52.012;8.448;2023-07-08T02:25:25;49.20;;;3.40;;
8474;SDS011;4274;52.012;8.448;2023-07-08T02:27:51;47.57;;;3.57;;
8474;SDS011;4274;52.012;8.448;2023-07-08T02:30:17;48.13;;;3.03;;
8474;SDS011;4274;52.012;8.448;2023-07-08T02:32:43;47.23;;;3.30;;
8474;SDS011;4274;52.012;8.448;2023-07-08T02:35:13;49.90;;;3.87;;
8474;SDS011;4274;52.012;8.448;2023-07-08T02:37:39;48.43;;;4.03;;
8474;SDS011;4274;52.012;8.448;2023-07-08T02:40:05;52.07;;;3.90;;
8474;SDS011;4274;52.012;8.448;2023-07-08T02:42:31;47.10;;;3.10;;
8474;SDS011;4274;52.012;8.448;2023-07-08T02:44:57;50.00;;;3.10;;
8474;SDS011;4274;52.012;8.448;2023-07-08T02:47:22;49.07;;;3.30;;
8474;SDS011;4274;52.012;8.448;2023-07-08T02:49:48;47.57;;;3.10;;
8474;SDS011;4274;52.012;8.448;2023-07-08T02:52:14;48.77;;;3.40;;
8474;SDS011;4274;52.012;8.448;2023-07-08T02:54:39;51.73;;;4.00;;
8474;SDS011;4274;52.012;8.448;2023-07-08T02:57:05;50.87;;;2.97;;
8474;SDS011;4274;52.012;8.448;2023-07-08T02:59:30;47.07;;;3.50;;
8474;SDS011;4274;52.012;8.448;2023-07-08T03:01:56;48.10;;;3.20;;
8474;SDS011;4274;52.012;8.448;2023-07-08T03:04:21;47.87;;;3.13;;
8474;SDS011;4274;52.012;8.448;2023-07-08T03:06:50;47.33;;;3.10;;
8474;SDS011;4274;52.012;8.448;2023-07-08T03:09:16;47.90;;;3.43;;
8474;SDS011;4274;52.012;8.448;2023-07-08T03:11:42;47.60;;;3.23;;
8474;SDS011;4274;52.012;8.448;2023-07-08T03:14:08;49.97;;;3.33;;
8474;SDS011;4274;52.012;8.448;2023-07-08T03:16:33;55.50;;;3.13;;
8474;SDS011;4274;52.012;8.448;2023-07-08T03:18:59;47.40;;;3.17;;
8474;SDS011;4274;52.012;8.448;2023-07-08T03:21:25;48.70;;;3.17;;
8474;SDS011;4274;52.012;8.448;2023-07-08T03:23:51;47.30;;;3.10;;
8474;SDS011;4274;52.012;8.448;2023-07-08T03:26:24;47.77;;;3.40;;
8474;SDS011;4274;52.012;8.448;2023-07-08T03:28:51;51.73;;;3.07;;
8474;SDS011;4274;52.012;8.448;2023-07-08T03:31:17;49.30;;;3.00;;
8474;SDS011;4274;52.012;8.448;2023-07-08T03:33:42;46.70;;;2.93;;
8474;SDS011;4274;52.012;8.448;2023-07-08T03:36:10;47.23;;;2.90;;
8474;SDS011;4274;52.012;8.448;2023-07-08T03:38:48;46.30;;;3.10;;
8474;SDS011;4274;52.012;8.448;2023-07-08T03:41:18;47.17;;;3.40;;
8474;SDS011;4274;52.012;8.448;2023-07-08T03:43:44;47.50;;;3.00;;
8474;SDS011;4274;52.012;8.448;2023-07-08T03:46:10;46.90;;;3.00;;
8474;SDS011;4274;52.012;8.448;2023-07-08T03:48:37;48.00;;;2.90;;
8474;SDS011;4274;52.012;8.448;2023-07-08T03:51:03;47.37;;;3.57;;
8474;SDS011;4274;52.012;8.448;2023-07-08T03:53:29;47.90;;;3.17;;
8474;SDS011;4274;52.012;8.448;2023-07-08T03:55:54;46.60;;;2.87;;
8474;SDS011;4274;52.012;8.448;2023-07-08T03:58:20;59.77;;;3.03;;
8474;SDS011;4274;52.012;8.448;2023-07-08T04:00:45;51.37;;;3.37;;
8474;SDS011;4274;52.012;8.448;2023-07-08T04:03:11;50.13;;;3.37;;
8474;SDS011;4274;52.012;8.448;2023-07-08T04:05:37;54.00;;;3.77;;
8474;SDS011;4274;52.012;8.448;2023-07-08T04:08:03;47.83;;;3.10;;
8474;SDS011;4274;52.012;8.448;2023-07-08T04:10:28;47.70;;;3.40;;
8474;SDS011;4274;52.012;8.448;2023-07-08T04:12:54;47.07;;;3.20;;
8474;SDS011;4274;52.012;8.448;2023-07-08T04:15:19;48.33;;;3.37;;
8474;SDS011;4274;52.012;8.448;2023-07-08T04:17:50;46.80;;;3.17;;
8474;SDS011;4274;52.012;8.448;2023-07-08T04:20:16;53.10;;;3.00;;
8474;SDS011;4274;52.012;8.448;2023-07-08T04:22:43;47.00;;;3.00;;
8474;SDS011;4274;52.012;8.448;2023-07-08T04:25:10;46.97;;;3.37;;
8474;SDS011;4274;52.012;8.448;2023-07-08T04:27:37;47.43;;;2.70;;
8474;SDS011;4274;52.012;8.448;2023-07-08T04:30:03;47.23;;;3.17;;
8474;SDS011;4274;52.012;8.448;2023-07-08T04:32:30;47.67;;;3.27;;
8474;SDS011;4274;52.012;8.448;2023-07-08T04:34:55;50.10;;;3.30;;
8474;SDS011;4274;52.012;8.448;2023-07-08T04:37:21;47.30;;;3.30;;
8474;SDS011;4274;52.012;8.448;2023-07-08T04:39:47;46.47;;;2.87;;
8474;SDS011;4274;52.012;8.448;2023-07-08T04:42:13;50.97;;;3.37;;
8474;SDS011;4274;52.012;8.448;2023-07-08T04:44:40;52.40;;;3.53;;
8474;SDS011;4274;52.012;8.448;2023-07-08T04:47:06;50.83;;;4.07;;
8474;SDS011;4274;52.012;8.448;2023-07-08T04:49:34;46.57;;;3.13;;
8474;SDS011;4274;52.012;8.448;2023-07-08T04:52:00;50.07;;;3.10;;
8474;SDS011;4274;52.012;8.448;2023-07-08T04:54:27;48.07;;;3.30;;
8474;SDS011;4274;52.012;8.448;2023-07-08T04:56:53;50.30;;;3.60;;
8474;SDS011;4274;52.012;8.448;2023-07-08T04:59:20;51.50;;;3.80;;
8474;SDS011;4274;52.012;8.448;2023-07-08T05:01:48;51.00;;;3.00;;
8474;SDS011;4274;52.012;8.448;2023-07-08T05:04:15;48.67;;;3.17;;
8474;SDS011;4274;52.012;8.448;2023-07-08T05:06:42;47.57;;;3.40;;
8474;SDS011;4274;52.012;8.448;2023-07-08T05:09:08;47.80;;;3.47;;
8474;SDS011;4274;52.012;8.448;2023-07-08T05:11:34;49.50;;;4.43;;
8474;SDS011;4274;52.012;8.448;2023-07-08T05:14:01;58.60;;;4.40;;
8474;SDS011;4274;52.012;8.448;2023-07-08T05:16:27;52.10;;;3.13;;
8474;SDS011;4274;52.012;8.448;2023-07-08T05:18:53;47.40;;;3.20;;
8474;SDS011;4274;52.012;8.448;2023-07-08T05:21:19;51.20;;;3.60;;
8474;SDS011;4274;52.012;8.448;2023-07-08T05:23:46;53.00;;;3.40;;
8474;SDS011;4274;52.012;8.448;2023-07-08T05:26:14;50.40;;;3.57;;
8474;SDS011;4274;52.012;8.448;2023-07-08T05:28:40;50.37;;;3.70;;
8474;SDS011;4274;52.012;8.448;2023-07-08T05:31:05;47.93;;;3.60;;
8474;SDS011;4274;52.012;8.448;2023-07-08T05:33:31;51.33;;;3.73;;
8474;SDS011;4274;52.012;8.448;2023-07-08T05:35:57;48.87;;;3.50;;
8474;SDS011;4274;52.012;8.448;2023-07-08T05:38:23;46.77;;;3.23;;
8474;SDS011;4274;52.012;8.448;2023-07-08T05:40:49;47.33;;;3.10;;
8474;SDS011;4274;52.012;8.448;2023-07-08T05:43:18;50.70;;;3.50;;
8474;SDS011;4274;52.012;8.448;2023-07-08T05:45:44;47.73;;;3.40;;
8474;SDS011;4274;52.012;8.448;2023-07-08T05:48:10;48.37;;;3.50;;
8474;SDS011;4274;52.012;8.448;2023-07-08T05:50:35;48.63;;;3.33;;
8474;SDS011;4274;52.012;8.448;2023-07-08T05:53:01;58.50;;;3.50;;
8474;SDS011;4274;52.012;8.448;2023-07-08T05:55:26;47.57;;;3.20;;
8474;SDS011;4274;52.012;8.448;2023-07-08T05:57:52;49.37;;;3.37;;
8474;SDS011;4274;52.012;8.448;2023-07-08T06:00:18;52.03;;;3.20;;
8474;SDS011;4274;52.012;8.448;2023-07-08T06:02:43;47.40;;;3.20;;
8474;SDS011;4274;52.012;8.448;2023-07-08T06:05:09;51.50;;;3.60;;
8474;SDS011;4274;52.012;8.448;2023-07-08T06:07:35;47.60;;;3.23;;
8474;SDS011;4274;52.012;8.448;2023-07-08T06:10:00;49.60;;;3.60;;
8474;SDS011;4274;52.012;8.448;2023-07-08T06:12:26;52.00;;;4.13;;
8474;SDS011;4274;52.012;8.448;2023-07-08T06:14:52;63.83;;;3.40;;
8474;SDS011;4274;52.012;8.448;2023-07-08T06:17:17;50.47;;;3.60;;
8474;SDS011;4274;52.012;8.448;2023-07-08T06:19:43;47.97;;;3.33;;
8474;SDS011;4274;52.012;8.448;2023-07-08T06:22:09;49.90;;;4.00;;
8474;SDS011;4274;52.012;8.448;2023-07-08T06:24:35;47.40;;;3.20;;
8474;SDS011;4274;52.012;8.448;2023-07-08T06:27:00;51.13;;;3.40;;
8474;SDS011;4274;52.012;8.448;2023-07-08T06:29:26;48.93;;;3.90;;
8474;SDS011;4274;52.012;8.448;2023-07-08T06:31:52;47.87;;;3.50;;
8474;SDS011;4274;52.012;8.448;2023-07-08T06:34:18;50.10;;;3.60;;
8474;SDS011;4274;52.012;8.448;2023-07-08T06:36:44;51.73;;;3.70;;
8474;SDS011;4274;52.012;8.448;2023-07-08T06:39:10;49.07;;;3.77;;
8474;SDS011;4274;52.012;8.448;2023-07-08T06:41:36;48.50;;;4.00;;
8474;SDS011;4274;52.012;8.448;2023-07-08T06:44:02;47.97;;;3.87;;
8474;SDS011;4274;52.012;8.448;2023-07-08T06:46:28;63.23;;;4.57;;
8474;SDS011;4274;52.012;8.448;2023-07-08T06:48:54;49.80;;;3.80;;
8474;SDS011;4274;52.012;8.448;2023-07-08T06:51:20;49.10;;;3.90;;
8474;SDS011;4274;52.012;8.448;2023-07-08T06:53:45;48.10;;;3.40;;
8474;SDS011;4274;52.012;8.448;2023-07-08T06:56:11;48.13;;;3.17;;
8474;SDS011;4274;52.012;8.448;2023-07-08T06:58:36;50.30;;;3.20;;
8474;SDS011;4274;52.012;8.448;2023-07-08T07:01:02;50.90;;;3.67;;
8474;SDS011;4274;52.012;8.448;2023-07-08T07:03:27;48.07;;;3.33;;
8474;SDS011;4274;52.012;8.448;2023-07-08T07:05:53;48.30;;;3.60;;
8474;SDS011;4274;52.012;8.448;2023-07-08T07:08:18;47.83;;;3.57;;
8474;SDS011;4274;52.012;8.448;2023-07-08T07:10:44;55.90;;;3.87;;
8474;SDS011;4274;52.012;8.448;2023-07-08T07:13:10;50.47;;;4.43;;
8474;SDS011;4274;52.012;8.448;2023-07-08T07:15:35;51.80;;;3.60;;
8474;SDS011;4274;52.012;8.448;2023-07-08T07:18:01;48.97;;;3.60;;
8474;SDS011;4274;52.012;8.448;2023-07-08T07:20:27;50.40;;;3.90;;
8474;SDS011;4274;52.012;8.448;2023-07-08T07:22:53;48.20;;;3.33;;
8474;SDS011;4274;52.012;8.448;2023-07-08T07:25:19;49.60;;;3.30;;
8474;SDS011;4274;52.012;8.448;2023-07-08T07:27:44;51.40;;;3.60;;
8474;SDS011;4274;52.012;8.448;2023-07-08T07:30:10;49.30;;;3.50;;
8474;SDS011;4274;52.012;8.448;2023-07-08T07:32:40;49.30;;;3.87;;
8474;SDS011;4274;52.012;8.448;2023-07-08T07:35:07;48.90;;;3.60;;
8474;SDS011;4274;52.012;8.448;2023-07-08T07:37:33;47.10;;;3.33;;
8474;SDS011;4274;52.012;8.448;2023-07-08T07:39:59;49.23;;;3.93;;
8474;SDS011;4274;52.012;8.448;2023-07-08T07:42:26;55.63;;;3.83;;
8474;SDS011;4274;52.012;8.448;2023-07-08T07:44:52;50.10;;;3.90;;
8474;SDS011;4274;52.012;8.448;2023-07-08T07:47:18;47.70;;;3.43;;
8474;SDS011;4274;52.012;8.448;2023-07-08T07:49:44;54.50;;;3.70;;
8474;SDS011;4274;52.012;8.448;2023-07-08T07:52:09;48.43;;;4.13;;
8474;SDS011;4274;52.012;8.448;2023-07-08T07:54:36;51.37;;;4.10;;
8474;SDS011;4274;52.012;8.448;2023-07-08T07:57:03;66.20;;;4.60;;
8474;SDS011;4274;52.012;8.448;2023-07-08T07:59:29;49.27;;;3.33;;
8474;SDS011;4274;52.012;8.448;2023-07-08T08:01:55;50.30;;;4.13;;
8474;SDS011;4274;52.012;8.448;2023-07-08T08:04:20;50.03;;;4.77;;
8474;SDS011;4274;52.012;8.448;2023-07-08T08:06:46;48.40;;;3.38;;
8474;SDS011;4274;52.012;8.448;2023-07-08T08:09:12;49.83;;;4.17;;
8474;SDS011;4274;52.012;8.448;2023-07-08T08:11:38;47.97;;;3.07;;
8474;SDS011;4274;52.012;8.448;2023-07-08T08:14:03;56.23;;;3.90;;
8474;SDS011;4274;52.012;8.448;2023-07-08T08:16:29;52.30;;;3.70;;
8474;SDS011;4274;52.012;8.448;2023-07-08T08:18:55;50.80;;;3.40;;
8474;SDS011;4274;52.012;8.448;2023-07-08T08:21:21;50.90;;;3.30;;
8474;SDS011;4274;52.012;8.448;2023-07-08T08:23:46;49.23;;;3.60;;
8474;SDS011;4274;52.012;8.448;2023-07-08T08:26:12;51.50;;;4.30;;
8474;SDS011;4274;52.012;8.448;2023-07-08T08:28:38;48.40;;;3.17;;
8474;SDS011;4274;52.012;8.448;2023-07-08T08:31:04;49.07;;;4.00;;
8474;SDS011;4274;52.012;8.448;2023-07-08T08:33:29;50.07;;;3.80;;
8474;SDS011;4274;52.012;8.448;2023-07-08T08:35:55;52.37;;;4.50;;
8474;SDS011;4274;52.012;8.448;2023-07-08T08:38:20;49.77;;;4.47;;
8474;SDS011;4274;52.012;8.448;2023-07-08T08:40:55;50.30;;;3.80;;
8474;SDS011;4274;52.012;8.448;2023-07-08T08:43:21;47.33;;;3.27;;
8474;SDS011;4274;52.012;8.448;2023-07-08T08:48:38;51.60;;;3.73;;
8474;SDS011;4274;52.012;8.448;2023-07-08T08:51:16;52.03;;;3.83;;
8474;SDS011;4274;52.012;8.448;2023-07-08T08:53:42;51.57;;;4.10;;
8474;SDS011;4274;52.012;8.448;2023-07-08T08:56:24;48.80;;;3.40;;
8474;SDS011;4274;52.012;8.448;2023-07-08T08:58:58;49.97;;;4.17;;
8474;SDS011;4274;52.012;8.448;2023-07-08T09:01:28;52.30;;;4.10;;
8474;SDS011;4274;52.012;8.448;2023-07-08T09:04:08;51.40;;;3.70;;
8474;SDS011;4274;52.012;8.448;2023-07-08T09:06:42;48.90;;;3.67;;
8474;SDS011;4274;52.012;8.448;2023-07-08T09:12:05;49.07;;;4.33;;
8474;SDS011;4274;52.012;8.448;2023-07-08T09:14:36;49.80;;;4.13;;
8474;SDS011;4274;52.012;8.448;2023-07-08T09:22:46;50.90;;;3.80;;
8474;SDS011;4274;52.012;8.448;2023-07-08T09:25:24;51.47;;;4.60;;
8474;SDS011;4274;52.012;8.448;2023-07-08T09:28:01;49.13;;;4.00;;
8474;SDS011;4274;52.012;8.448;2023-07-08T09:30:27;49.60;;;3.97;;
8474;SDS011;4274;52.012;8.448;2023-07-08T09:32:55;49.50;;;3.90;;
8474;SDS011;4274;52.012;8.448;2023-07-08T09:35:22;49.60;;;4.00;;
8474;SDS011;4274;52.012;8.448;2023-07-08T09:37:50;49.57;;;3.90;;
8474;SDS011;4274;52.012;8.448;2023-07-08T09:40:20;49.57;;;4.13;;
8474;SDS011;4274;52.012;8.448;2023-07-08T09:42:54;50.80;;;3.90;;
8474;SDS011;4274;52.012;8.448;2023-07-08T09:45:25;50.90;;;4.43;;
8474;SDS011;4274;52.012;8.448;2023-07-08T09:47:57;50.33;;;4.47;;
8474;SDS011;4274;52.012;8.448;2023-07-08T09:50:27;48.90;;;4.43;;
8474;SDS011;4274;52.012;8.448;2023-07-08T09:52:55;51.20;;;4.50;;
8474;SDS011;4274;52.012;8.448;2023-07-08T09:55:26;58.10;;;5.30;;
8474;SDS011;4274;52.012;8.448;2023-07-08T09:57:53;54.00;;;4.70;;
8474;SDS011;4274;52.012;8.448;2023-07-08T10:00:55;51.53;;;4.63;;
8474;SDS011;4274;52.012;8.448;2023-07-08T10:03:17;49.83;;;4.40;;
8474;SDS011;4274;52.012;8.448;2023-07-08T10:05:54;53.10;;;4.87;;
8474;SDS011;4274;52.012;8.448;2023-07-08T10:08:23;49.53;;;4.60;;
8474;SDS011;4274;52.012;8.448;2023-07-08T10:10:54;52.50;;;5.07;;
8474;SDS011;4274;52.012;8.448;2023-07-08T10:13:37;51.20;;;5.00;;
8474;SDS011;4274;52.012;8.448;2023-07-08T10:18:52;54.00;;;4.47;;
8474;SDS011;4274;52.012;8.448;2023-07-08T10:26:42;50.70;;;4.50;;
8474;SDS011;4274;52.012;8.448;2023-07-08T10:32:23;55.00;;;4.90;;
8474;SDS011;4274;52.012;8.448;2023-07-08T10:43:24;50.67;;;3.80;;
8474;SDS011;4274;52.012;8.448;2023-07-08T10:46:06;50.33;;;3.58;;
8474;SDS011;4274;52.012;8.448;2023-07-08T10:51:40;50.90;;;3.80;;
8474;SDS011;4274;52.012;8.448;2023-07-08T10:57:41;48.25;;;3.80;;
8474;SDS011;4274;52.012;8.448;2023-07-08T11:03:06;51.80;;;3.90;;
8474;SDS011;4274;52.012;8.448;2023-07-08T11:06:01;50.08;;;4.68;;
8474;SDS011;4274;52.012;8.448;2023-07-08T11:11:33;49.88;;;4.28;;
8474;SDS011;4274;52.012;8.448;2023-07-08T11:14:04;51.75;;;5.05;;
8474;SDS011;4274;52.012;8.448;2023-07-08T11:16:45;50.03;;;4.53;;
8474;SDS011;4274;52.012;8.448;2023-07-08T11:19:20;50.22;;;4.03;;
8474;SDS011;4274;52.012;8.448;2023-07-08T11:21:51;50.30;;;4.10;;
8474;SDS011;4274;52.012;8.448;2023-07-08T11:24:22;51.20;;;4.22;;
8474;SDS011;4274;52.012;8.448;2023-07-08T11:27:41;49.55;;;4.20;;
8474;SDS011;4274;52.012;8.448;2023-07-08T11:30:04;53.45;;;4.40;;
8474;SDS011;4274;52.012;8.448;2023-07-08T11:32:47;52.72;;;4.90;;
8474;SDS011;4274;52.012;8.448;2023-07-08T11:35:29;50.17;;;4.65;;
8474;SDS011;4274;52.012;8.448;2023-07-08T11:37:59;51.03;;;4.07;;
8474;SDS011;4274;52.012;8.448;2023-07-08T11:40:26;48.85;;;4.18;;
8474;SDS011;4274;52.012;8.448;2023-07-08T11:42:53;51.38;;;4.45;;
8474;SDS011;4274;52.012;8.448;2023-07-08T11:45:37;58.33;;;4.60;;
8474;SDS011;4274;52.012;8.448;2023-07-08T11:48:16;50.30;;;4.65;;
8474;SDS011;4274;52.012;8.448;2023-07-08T11:50:46;53.58;;;5.72;;
8474;SDS011;4274;52.012;8.448;2023-07-08T11:53:35;51.55;;;4.85;;
8474;SDS011;4274;52.012;8.448;2023-07-08T11:56:03;54.13;;;3.78;;
8474;SDS011;4274;52.012;8.448;2023-07-08T11:58:31;50.35;;;4.53;;
8474;SDS011;4274;52.012;8.448;2023-07-08T12:03:59;49.65;;;4.18;;
8474;SDS011;4274;52.012;8.448;2023-07-08T12:08:59;50.30;;;4.50;;
8474;SDS011;4274;52.012;8.448;2023-07-08T12:11:39;51.90;;;4.50;;
8474;SDS011;4274;52.012;8.448;2023-07-08T12:14:08;51.75;;;5.05;;
8474;SDS011;4274;52.012;8.448;2023-07-08T12:16:34;50.65;;;4.50;;
8474;SDS011;4274;52.012;8.448;2023-07-08T12:19:00;51.38;;;4.68;;
8474;SDS011;4274;52.012;8.448;2023-07-08T12:21:29;51.55;;;4.47;;
8474;SDS011;4274;52.012;8.448;2023-07-08T12:24:03;51.50;;;4.68;;
8474;SDS011;4274;52.012;8.448;2023-07-08T12:26:30;50.20;;;4.35;;
8474;SDS011;4274;52.012;8.448;2023-07-08T12:28:57;50.55;;;4.70;;
8474;SDS011;4274;52.012;8.448;2023-07-08T12:31:23;50.30;;;4.47;;
8474;SDS011;4274;52.012;8.448;2023-07-08T12:33:49;50.20;;;4.00;;
8474;SDS011;4274;52.012;8.448;2023-07-08T12:36:25;49.42;;;4.20;;
8474;SDS011;4274;52.012;8.448;2023-07-08T12:38:56;56.13;;;4.10;;
8474;SDS011;4274;52.012;8.448;2023-07-08T12:41:24;53.80;;;4.05;;
8474;SDS011;4274;52.012;8.448;2023-07-08T12:43:54;50.00;;;3.90;;
8474;SDS011;4274;52.012;8.448;2023-07-08T12:46:21;49.38;;;3.90;;
8474;SDS011;4274;52.012;8.448;2023-07-08T12:48:47;53.22;;;4.85;;
8474;SDS011;4274;52.012;8.448;2023-07-08T12:51:14;53.58;;;4.60;;
8474;SDS011;4274;52.012;8.448;2023-07-08T12:53:41;51.10;;;4.75;;
8474;SDS011;4274;52.012;8.448;2023-07-08T12:56:08;51.38;;;4.88;;
8474;SDS011;4274;52.012;8.448;2023-07-08T12:58:38;51.17;;;4.60;;
8474;SDS011;4274;52.012;8.448;2023-07-08T13:01:07;50.42;;;4.43;;
8474;SDS011;4274;52.012;8.448;2023-07-08T13:03:37;51.20;;;4.93;;
8474;SDS011;4274;52.012;8.448;2023-07-08T13:06:09;52.13;;;4.85;;
8474;SDS011;4274;52.012;8.448;2023-07-08T13:08:36;53.45;;;4.65;;
8474;SDS011;4274;52.012;8.448;2023-07-08T13:11:03;52.03;;;5.00;;
8474;SDS011;4274;52.012;8.448;2023-07-08T13:13:33;57.08;;;5.05;;
8474;SDS011;4274;52.012;8.448;2023-07-08T13:16:01;50.17;;;4.90;;
8474;SDS011;4274;52.012;8.448;2023-07-08T13:18:35;49.88;;;4.22;;
8474;SDS011;4274;52.012;8.448;2023-07-08T13:21:04;58.08;;;4.93;;
8474;SDS011;4274;52.012;8.448;2023-07-08T13:23:32;56.22;;;5.40;;
8474;SDS011;4274;52.012;8.448;2023-07-08T13:25:59;52.05;;;4.70;;
8474;SDS011;4274;52.012;8.448;2023-07-08T13:28:26;56.10;;;4.35;;
8474;SDS011;4274;52.012;8.448;2023-07-08T13:31:01;53.73;;;5.73;;
8474;SDS011;4274;52.012;8.448;2023-07-08T13:33:31;51.90;;;4.40;;
8474;SDS011;4274;52.012;8.448;2023-07-08T13:36:00;54.57;;;5.30;;
8474;SDS011;4274;52.012;8.448;2023-07-08T13:38:31;52.53;;;5.17;;
8474;SDS011;4274;52.012;8.448;2023-07-08T13:41:00;51.90;;;5.40;;
8474;SDS011;4274;52.012;8.448;2023-07-08T13:43:28;54.87;;;5.30;;
8474;SDS011;4274;52.012;8.448;2023-07-08T13:45:56;52.30;;;5.20;;
8474;SDS011;4274;52.012;8.448;2023-07-08T13:48:26;52.87;;;5.37;;
8474;SDS011;4274;52.012;8.448;2023-07-08T13:51:16;50.90;;;4.63;;
8474;SDS011;4274;52.012;8.448;2023-07-08T13:53:50;58.53;;;4.83;;
8474;SDS011;4274;52.012;8.448;2023-07-08T13:56:24;51.17;;;4.10;;
8474;SDS011;4274;52.012;8.448;2023-07-08T13:58:52;51.27;;;4.60;;
8474;SDS011;4274;52.012;8.448;2023-07-08T14:01:25;54.50;;;5.07;;
8474;SDS011;4274;52.012;8.448;2023-07-08T14:03:52;52.87;;;5.13;;
8474;SDS011;4274;52.012;8.448;2023-07-08T14:06:20;52.77;;;5.17;;
8474;SDS011;4274;52.012;8.448;2023-07-08T14:08:54;55.60;;;5.50;;
8474;SDS011;4274;52.012;8.448;2023-07-08T14:11:22;52.17;;;4.90;;
8474;SDS011;4274;52.012;8.448;2023-07-08T14:13:47;52.97;;;5.03;;
8474;SDS011;4274;52.012;8.448;2023-07-08T14:18:55;61.27;;;5.50;;
8474;SDS011;4274;52.012;8.448;2023-07-08T14:21:23;54.80;;;4.93;;
8474;SDS011;4274;52.012;8.448;2023-07-08T14:23:48;54.50;;;4.80;;
8474;SDS011;4274;52.012;8.448;2023-07-08T14:26:14;58.40;;;5.23;;
8474;SDS011;4274;52.012;8.448;2023-07-08T14:28:40;55.70;;;5.53;;
8474;SDS011;4274;52.012;8.448;2023-07-08T14:31:09;54.27;;;5.53;;
8474;SDS011;4274;52.012;8.448;2023-07-08T14:33:36;55.67;;;5.40;;
8474;SDS011;4274;52.012;8.448;2023-07-08T14:36:02;53.40;;;4.93;;
8474;SDS011;4274;52.012;8.448;2023-07-08T14:38:29;57.00;;;5.77;;
8474;SDS011;4274;52.012;8.448;2023-07-08T14:40:54;57.00;;;5.20;;
8474;SDS011;4274;52.012;8.448;2023-07-08T14:43:25;54.30;;;5.07;;
8474;SDS011;4274;52.012;8.448;2023-07-08T14:45:57;54.13;;;4.63;;
8474;SDS011;4274;52.012;8.448;2023-07-08T14:48:27;54.90;;;5.47;;
8474;SDS011;4274;52.012;8.448;2023-07-08T14:50:54;51.60;;;4.60;;
8474;SDS011;4274;52.012;8.448;2023-07-08T14:53:19;55.37;;;5.43;;
8474;SDS011;4274;52.012;8.448;2023-07-08T14:55:46;57.97;;;4.83;;
8474;SDS011;4274;52.012;8.448;2023-07-08T14:58:20;57.27;;;5.33;;
8474;SDS011;4274;52.012;8.448;2023-07-08T15:00:49;57.40;;;4.97;;
8474;SDS011;4274;52.012;8.448;2023-07-08T15:03:16;55.43;;;5.70;;
8474;SDS011;4274;52.012;8.448;2023-07-08T15:05:41;56.77;;;5.40;;
8474;SDS011;4274;52.012;8.448;2023-07-08T15:08:07;54.90;;;5.10;;
8474;SDS011;4274;52.012;8.448;2023-07-08T15:10:33;61.37;;;5.13;;
8474;SDS011;4274;52.012;8.448;2023-07-08T15:13:01;57.37;;;5.40;;
8474;SDS011;4274;52.012;8.448;2023-07-08T15:15:29;55.10;;;5.67;;
8474;SDS011;4274;52.012;8.448;2023-07-08T15:17:56;58.57;;;5.50;;
8474;SDS011;4274;52.012;8.448;2023-07-08T15:20:23;59.17;;;5.60;;
8474;SDS011;4274;52.012;8.448;2023-07-08T15:22:49;53.80;;;5.23;;
8474;SDS011;4274;52.012;8.448;2023-07-08T15:25:15;55.00;;;5.10;;
8474;SDS011;4274;52.012;8.448;2023-07-08T15:27:48;53.40;;;5.47;;
8474;SDS011;4274;52.012;8.448;2023-07-08T15:30:21;52.40;;;5.17;;
8474;SDS011;4274;52.012;8.448;2023-07-08T15:32:48;50.87;;;4.47;;
8474;SDS011;4274;52.012;8.448;2023-07-08T15:35:15;55.37;;;6.57;;
8474;SDS011;4274;52.012;8.448;2023-07-08T15:37:46;60.27;;;9.40;;
8474;SDS011;4274;52.012;8.448;2023-07-08T15:40:12;52.70;;;5.80;;
8474;SDS011;4274;52.012;8.448;2023-07-08T15:42:39;54.00;;;5.87;;
8474;SDS011;4274;52.012;8.448;2023-07-08T15:45:11;54.40;;;7.17;;
8474;SDS011;4274;52.012;8.448;2023-07-08T15:47:37;54.13;;;5.63;;
8474;SDS011;4274;52.012;8.448;2023-07-08T15:50:07;55.80;;;6.07;;
8474;SDS011;4274;52.012;8.448;2023-07-08T15:52:38;55.30;;;5.37;;
8474;SDS011;4274;52.012;8.448;2023-07-08T15:55:04;54.47;;;5.67;;
8474;SDS011;4274;52.012;8.448;2023-07-08T15:57:32;55.17;;;5.37;;
8474;SDS011;4274;52.012;8.448;2023-07-08T15:59:59;54.87;;;5.23;;